Terminal Aerodrome Forecast
Issued by NWS

Current Version | Previous Version | Text Only | Print | Product List | Glossary On
Versions: 1 2 3 4 5 6 7 8 9 10 11 12 13 14 15 16
691
FTPA31 PHFO 221146
TAFHOG
TAF
PHOG 221146Z 2212/2312 09006KT P6SM FEW030 BKN060
     FM222000 06018G24KT P6SM SCT060
     FM230600 06009KT P6SM FEW045=

USA.gov is the U.S. government's official web portal to all federal, state and local government web resources and services.